CheckWX is a tool to help pilots better visualize weather data.  It is not intended as a substitute for an official pre-flight weather briefing.

21:12:21 UTC

CYPD METAR
Port Hawkesbury Airport
Port Hawkesbury, Canada
Current

12 mins ago

CYPD 232100Z AUTO 29013KT 9SM CLR 10/00 A3001 RMK SLP168
Observed
May-23 @ 21:00 UTC
Wind
  • 290° at 13 KTS
Visibility
9 SM
Flight Rules
VFR
Cloud Levels
  • Clear skies
Temperature
10°C / 50°F
Dewpoint
C / 32°F
Humidity
50%
Altimeter
30.01" Hg
Pressure
1016.22 hPa
Previous

1 hour ago

CYPD 232000Z AUTO 30012G21KT 9SM CLR 10/01 A3002 RMK SLP170
Observed
May-23 @ 20:00 UTC
Wind
  • 300° at 12 KTS
  • Gusting to 21 KTS
Visibility
9 SM
Flight Rules
VFR
Cloud Levels
  • Clear skies
Temperature
10°C / 50°F
Dewpoint
C / 34°F
Humidity
54%
Altimeter
30.02" Hg
Pressure
1016.62 hPa
Previous

2 hours ago

CYPD 231900Z AUTO 30013G23KT 9SM CLR 10/M00 A3003 RMK SLP173
Observed
May-23 @ 19:00 UTC
Wind
  • 300° at 13 KTS
  • Gusting to 23 KTS
Visibility
9 SM
Flight Rules
VFR
Cloud Levels
  • Clear skies
Temperature
10°C / 50°F
Dewpoint
C / 32°F
Humidity
50%
Altimeter
30.03" Hg
Pressure
1016.92 hPa